createdAt,value
2023-03-06T00:00:54.688Z,100596.69
2023-03-06T00:03:23.081Z,100596.72
2023-03-06T00:05:49.990Z,100600.16
2023-03-06T00:08:16.852Z,100595.00
2023-03-06T00:10:43.848Z,100600.13
2023-03-06T00:13:14.696Z,100594.13
2023-03-06T00:15:41.787Z,100594.19
2023-03-06T00:18:08.651Z,100594.13
2023-03-06T00:20:35.555Z,100582.22
2023-03-06T00:23:02.820Z,100582.16
2023-03-06T00:25:29.656Z,100581.38
2023-03-06T00:27:56.616Z,100579.72
2023-03-06T00:30:25.019Z,100573.72
2023-03-06T00:32:53.010Z,100570.31
2023-03-06T00:35:20.017Z,100577.97
2023-03-06T00:37:46.832Z,100573.66
2023-03-06T00:40:17.970Z,100573.75
2023-03-06T00:42:45.680Z,100561.75
2023-03-06T00:45:13.059Z,100554.13
2023-03-06T00:47:41.018Z,100556.72
2023-03-06T00:50:09.253Z,100552.47
2023-03-06T00:52:36.974Z,100547.34
2023-03-06T00:55:05.016Z,100538.81
2023-03-06T00:57:31.805Z,100541.38
2023-03-06T00:59:58.799Z,100534.59
2023-03-06T01:02:26.312Z,100532.88
2023-03-06T01:04:54.689Z,100527.75
2023-03-06T01:07:21.602Z,100525.13
2023-03-06T01:09:48.525Z,100524.31
2023-03-06T01:12:15.385Z,100519.19
2023-03-06T01:14:42.063Z,100526.81
2023-03-06T01:17:09.991Z,100521.75
2023-03-06T01:19:36.777Z,100509.78
2023-03-06T01:22:03.598Z,100517.47
2023-03-06T01:24:31.603Z,100513.19
2023-03-06T01:26:58.452Z,100503.75
2023-03-06T01:29:26.344Z,100506.41
2023-03-06T01:31:53.406Z,100508.97
2023-03-06T01:34:20.589Z,100503.75
2023-03-06T01:36:47.450Z,100498.69
2023-03-06T01:39:14.240Z,100497.84
2023-03-06T01:41:41.520Z,100490.22
2023-03-06T01:44:13.600Z,100496.16
2023-03-06T01:46:45.669Z,100489.31
2023-03-06T01:49:29.466Z,100487.63
2023-03-06T01:52:09.363Z,100479.09
2023-03-06T01:54:42.762Z,100481.69
2023-03-06T01:57:43.805Z,100476.53
2023-03-06T02:00:17.949Z,100479.03
2023-03-06T02:03:01.109Z,100476.50
2023-03-06T02:05:27.914Z,100468.84
2023-03-06T02:07:55.154Z,100472.19
2023-03-06T02:10:22.189Z,100474.78
2023-03-06T02:12:51.143Z,100463.72
2023-03-06T02:15:22.325Z,100465.47
2023-03-06T02:17:51.694Z,100462.88
2023-03-06T02:20:24.408Z,100460.25
2023-03-06T02:23:26.569Z,100457.78
2023-03-06T02:25:54.225Z,100456.88
2023-03-06T02:28:24.256Z,100447.53
2023-03-06T02:30:53.800Z,100449.22
2023-03-06T02:33:26.599Z,100445.75
2023-03-06T02:36:06.058Z,100446.69
2023-03-06T02:38:49.504Z,100444.09
2023-03-06T02:41:17.321Z,100439.72
2023-03-06T02:43:48.043Z,100441.47
2023-03-06T02:46:15.075Z,100440.56
2023-03-06T02:48:42.336Z,100432.09
2023-03-06T02:51:09.397Z,100438.88
2023-03-06T02:53:36.190Z,100437.22
2023-03-06T02:56:02.985Z,100431.19
2023-03-06T02:58:29.731Z,100436.28
2023-03-06T03:00:56.447Z,100438.00
2023-03-06T03:03:23.133Z,100433.69
2023-03-06T03:05:49.902Z,100433.75
2023-03-06T03:08:23.893Z,100429.50
2023-03-06T03:10:56.241Z,100433.69
2023-03-06T03:13:24.893Z,100426.88
2023-03-06T03:16:04.263Z,100427.66
2023-03-06T03:18:31.204Z,100428.56
2023-03-06T03:20:58.779Z,100428.53
2023-03-06T03:23:26.604Z,100425.09
2023-03-06T03:26:06.319Z,100424.19
2023-03-06T03:28:34.481Z,100422.47
2023-03-06T03:31:09.452Z,100422.47
2023-03-06T03:33:38.227Z,100421.72
2023-03-06T03:36:07.377Z,100410.59
2023-03-06T03:38:37.555Z,100405.50
2023-03-06T03:41:04.974Z,100406.41
2023-03-06T03:43:32.163Z,100408.97
2023-03-06T03:46:00.216Z,100407.19
2023-03-06T03:48:27.856Z,100400.44
2023-03-06T03:50:55.662Z,100395.31
2023-03-06T03:53:24.168Z,100392.72
2023-03-06T03:55:51.048Z,100387.72
2023-03-06T03:58:20.948Z,100383.47
2023-03-06T04:00:48.917Z,100380.88
2023-03-06T04:03:15.784Z,100378.31
2023-03-06T04:05:44.968Z,100373.28
2023-03-06T04:08:14.664Z,100369.94
2023-03-06T04:10:44.098Z,100370.69
2023-03-06T04:13:12.508Z,100371.56
2023-03-06T04:15:43.086Z,100374.06
2023-03-06T04:18:11.043Z,100369.81
2023-03-06T04:20:38.456Z,100371.53
2023-03-06T04:23:05.443Z,100362.97
2023-03-06T04:25:32.778Z,100357.84
2023-03-06T04:28:02.467Z,100350.13
2023-03-06T04:30:30.372Z,100349.28
2023-03-06T04:32:57.856Z,100352.66
2023-03-06T04:35:25.079Z,100343.41
2023-03-06T04:37:58.250Z,100340.78
2023-03-06T04:40:32.249Z,100346.72
2023-03-06T04:43:01.094Z,100338.16
2023-03-06T04:45:29.939Z,100338.06
2023-03-06T04:48:00.514Z,100334.59
2023-03-06T04:50:32.586Z,100327.00
2023-03-06T04:53:01.378Z,100329.56
2023-03-06T04:55:28.934Z,100324.53
2023-03-06T04:57:57.143Z,100330.38
2023-03-06T05:00:31.457Z,100327.00
2023-03-06T05:03:01.155Z,100333.78
2023-03-06T05:05:29.462Z,100327.88
2023-03-06T05:07:56.950Z,100329.56
2023-03-06T05:10:24.054Z,100328.59
2023-03-06T05:12:50.866Z,100328.81
2023-03-06T05:15:18.145Z,100329.56
2023-03-06T05:17:46.056Z,100330.38
2023-03-06T05:20:14.126Z,100328.66
2023-03-06T05:22:41.031Z,100338.88
2023-03-06T05:25:08.503Z,100333.84
2023-03-06T05:27:35.253Z,100337.31
2023-03-06T05:30:02.047Z,100334.69
2023-03-06T05:32:28.977Z,100327.81
2023-03-06T05:34:56.053Z,100332.91
2023-03-06T05:37:23.329Z,100327.78
2023-03-06T05:39:51.358Z,100334.69
2023-03-06T05:42:18.433Z,100329.56
2023-03-06T05:44:45.791Z,100329.59
2023-03-06T05:47:13.023Z,100327.91
2023-03-06T05:49:40.086Z,100327.00
2023-03-06T05:52:08.601Z,100333.78
2023-03-06T05:54:37.286Z,100329.56
2023-03-06T05:57:05.551Z,100327.06
2023-03-06T05:59:33.668Z,100319.41
2023-03-06T06:02:01.408Z,100325.41
2023-03-06T06:04:28.568Z,100312.66
2023-03-06T06:06:58.830Z,100317.75
2023-03-06T06:09:26.729Z,100310.94
2023-03-06T06:11:57.137Z,100315.25
2023-03-06T06:14:24.294Z,100309.25
2023-03-06T06:16:51.572Z,100315.25
2023-03-06T06:19:19.652Z,100320.41
2023-03-06T06:21:49.267Z,100314.41
2023-03-06T06:24:18.885Z,100310.91
2023-03-06T06:26:45.899Z,100316.06
2023-03-06T06:29:13.825Z,100317.75
2023-03-06T06:31:41.078Z,100319.38
2023-03-06T06:34:09.689Z,100316.03
2023-03-06T06:36:36.446Z,100316.81
2023-03-06T06:39:03.620Z,100319.34
2023-03-06T06:41:50.649Z,100310.00
2023-03-06T06:44:18.648Z,100314.34
2023-03-06T06:49:33.934Z,100310.91
2023-03-06T06:52:00.917Z,100326.31
2023-03-06T06:54:28.221Z,100307.59
2023-03-06T06:56:55.029Z,100314.38
2023-03-06T06:59:23.731Z,100318.63
2023-03-06T07:01:52.309Z,100314.28
2023-03-06T07:04:19.977Z,100325.50
2023-03-06T07:06:47.281Z,100325.41
2023-03-06T07:09:14.638Z,100323.69
2023-03-06T07:11:41.839Z,100322.88
2023-03-06T07:14:08.954Z,100328.06
2023-03-06T07:16:35.776Z,100328.91
2023-03-06T07:19:02.898Z,100330.53
2023-03-06T07:21:29.668Z,100330.50
2023-03-06T07:23:57.601Z,100321.97
2023-03-06T07:26:28.548Z,100328.03
2023-03-06T07:28:55.452Z,100333.09
2023-03-06T07:31:25.573Z,100319.44
2023-03-06T07:33:54.110Z,100327.84
2023-03-06T07:36:23.077Z,100326.19
2023-03-06T07:38:50.174Z,100333.94
2023-03-06T07:41:20.432Z,100322.91
2023-03-06T07:43:48.789Z,100327.94
2023-03-06T07:46:17.476Z,100340.75
2023-03-06T07:48:44.725Z,100330.47
2023-03-06T07:51:19.129Z,100327.09
2023-03-06T07:53:47.073Z,100319.56
2023-03-06T07:56:14.094Z,100332.13
2023-03-06T07:58:44.157Z,100326.19
2023-03-06T08:01:17.828Z,100321.88
2023-03-06T08:03:44.648Z,100327.72
2023-03-06T08:06:15.330Z,100327.03
2023-03-06T08:08:44.505Z,100324.25
2023-03-06T08:11:13.851Z,100325.03
2023-03-06T08:13:41.191Z,100325.22
2023-03-06T08:16:09.370Z,100321.94
2023-03-06T08:18:38.123Z,100320.16
2023-03-06T08:21:11.667Z,100322.50
2023-03-06T08:23:38.821Z,100321.03
2023-03-06T08:26:11.752Z,100313.25
2023-03-06T08:28:38.573Z,100315.75
2023-03-06T08:31:37.939Z,100313.13
2023-03-06T08:34:12.520Z,100310.38
2023-03-06T08:36:39.657Z,100319.72
2023-03-06T08:39:07.678Z,100316.09
2023-03-06T08:41:36.451Z,100314.56
2023-03-06T08:44:04.727Z,100304.09
2023-03-06T08:46:33.055Z,100300.13
2023-03-06T08:49:00.064Z,100308.69
2023-03-06T08:51:27.964Z,100308.72
2023-03-06T08:53:56.903Z,100315.56
2023-03-06T08:56:30.493Z,100302.81
2023-03-06T08:59:00.872Z,100294.88
2023-03-06T09:01:34.722Z,100306.16
2023-03-06T09:04:08.320Z,100306.91
2023-03-06T09:06:40.067Z,100311.91
2023-03-06T09:09:07.567Z,100306.75
2023-03-06T09:11:35.102Z,100305.94
2023-03-06T09:14:02.649Z,100311.09
2023-03-06T09:16:29.585Z,100314.41
2023-03-06T09:18:57.819Z,100309.34
2023-03-06T09:21:26.258Z,100307.75
2023-03-06T09:23:53.235Z,100314.56
2023-03-06T09:26:28.008Z,100318.66
2023-03-06T09:29:03.160Z,100313.66
2023-03-06T09:31:31.738Z,100318.59
2023-03-06T09:33:58.513Z,100315.94
2023-03-06T09:36:25.316Z,100320.91
2023-03-06T09:38:52.949Z,100322.59
2023-03-06T09:41:31.687Z,100315.78
2023-03-06T09:44:08.639Z,100323.19
2023-03-06T09:46:55.081Z,100312.78
2023-03-06T09:49:58.076Z,100318.22
2023-03-06T09:52:52.325Z,100315.66
2023-03-06T09:55:22.789Z,100321.28
2023-03-06T09:58:14.515Z,100318.34
2023-03-06T10:01:09.791Z,100318.31
2023-03-06T10:03:44.081Z,100318.16
2023-03-06T10:06:24.622Z,100323.69
2023-03-06T10:09:01.288Z,100320.72
2023-03-06T10:11:36.668Z,100326.81
2023-03-06T10:14:20.283Z,100313.66
2023-03-06T10:16:47.160Z,100310.00
2023-03-06T10:19:19.528Z,100317.06
2023-03-06T10:22:21.136Z,100321.75
2023-03-06T10:24:53.805Z,100315.09
2023-03-06T10:27:29.350Z,100315.63
2023-03-06T10:30:12.033Z,100314.38
2023-03-06T10:32:57.895Z,100317.66
2023-03-06T10:35:43.206Z,100323.06
2023-03-06T10:38:24.182Z,100318.66
2023-03-06T10:41:12.679Z,100322.19
2023-03-06T10:43:43.016Z,100330.03
2023-03-06T10:46:27.146Z,100325.56
2023-03-06T10:49:00.241Z,100329.91
2023-03-06T10:51:29.236Z,100326.13
2023-03-06T10:54:28.065Z,100323.56
2023-03-06T10:56:55.008Z,100330.47
2023-03-06T10:59:28.190Z,100323.47
2023-03-06T11:02:24.905Z,100325.31
2023-03-06T11:04:54.033Z,100322.78
2023-03-06T11:07:30.215Z,100327.13
2023-03-06T11:09:56.992Z,100329.47
2023-03-06T11:12:38.085Z,100331.16
2023-03-06T11:15:24.832Z,100332.84
2023-03-06T11:18:39.821Z,100339.47
2023-03-06T11:21:24.956Z,100332.63
2023-03-06T11:23:53.738Z,100327.44
2023-03-06T11:26:32.613Z,100330.97
2023-03-06T11:29:12.421Z,100324.91
2023-03-06T11:31:52.680Z,100324.72
2023-03-06T11:34:39.170Z,100330.31
2023-03-06T11:37:33.771Z,100325.00
2023-03-06T11:40:20.171Z,100323.63
2023-03-06T11:43:07.235Z,100326.25
2023-03-06T11:45:45.977Z,100326.91
2023-03-06T11:48:16.604Z,100323.50
2023-03-06T11:50:52.881Z,100322.63
2023-03-06T11:53:36.726Z,100316.38
2023-03-06T11:56:19.738Z,100310.19
2023-03-06T11:59:33.483Z,100303.97
2023-03-06T12:03:11.201Z,100306.69
2023-03-06T12:05:46.066Z,100298.88
2023-03-06T12:09:04.865Z,100290.63
2023-03-06T12:12:08.913Z,100291.47
2023-03-06T12:15:10.808Z,100278.19
2023-03-06T12:18:08.227Z,100286.63
2023-03-06T12:20:55.391Z,100282.41
2023-03-06T12:23:31.085Z,100285.53
2023-03-06T12:26:09.105Z,100277.28
2023-03-06T12:28:59.991Z,100277.28
2023-03-06T12:31:46.088Z,100284.31
2023-03-06T12:34:46.483Z,100281.34
2023-03-06T12:37:41.008Z,100269.66
2023-03-06T12:40:38.211Z,100272.66
2023-03-06T12:43:28.252Z,100273.09
2023-03-06T12:46:03.730Z,100271.19
2023-03-06T12:48:36.710Z,100274.16
2023-03-06T12:51:06.823Z,100264.72
2023-03-06T12:53:36.701Z,100258.25
2023-03-06T12:56:04.638Z,100260.03
2023-03-06T12:58:31.376Z,100257.41
2023-03-06T13:01:34.500Z,100253.25
2023-03-06T13:04:35.526Z,100250.53
2023-03-06T13:07:11.651Z,100242.00
2023-03-06T13:10:41.924Z,100247.00
2023-03-06T13:13:46.958Z,100245.69
2023-03-06T13:16:26.343Z,100249.88
2023-03-06T13:19:12.111Z,100245.22
2023-03-06T13:21:41.857Z,100249.88
2023-03-06T13:24:22.223Z,100246.38
2023-03-06T13:26:56.105Z,100243.78
2023-03-06T13:29:37.813Z,100241.06
2023-03-06T13:32:04.463Z,100229.09
2023-03-06T13:34:38.300Z,100230.47
2023-03-06T13:37:17.427Z,100228.50
2023-03-06T13:39:56.692Z,100224.94
2023-03-06T13:42:30.538Z,100221.38
2023-03-06T13:45:18.409Z,100223.09
2023-03-06T13:48:14.170Z,100222.03
2023-03-06T13:50:43.164Z,100224.78
2023-03-06T13:53:37.952Z,100228.31
2023-03-06T13:56:23.500Z,100230.38
2023-03-06T13:58:53.063Z,100225.75
2023-03-06T14:01:39.387Z,100222.38
2023-03-06T14:04:33.247Z,100227.88
2023-03-06T14:07:23.438Z,100224.28
2023-03-06T14:10:14.742Z,100221.81
2023-03-06T14:12:50.729Z,100213.47
2023-03-06T14:15:45.932Z,100212.53
2023-03-06T14:18:48.236Z,100215.84
2023-03-06T14:21:30.431Z,100200.25
2023-03-06T14:24:01.187Z,100199.97
2023-03-06T14:26:34.810Z,100199.09
2023-03-06T14:29:02.990Z,100200.53
2023-03-06T14:31:42.804Z,100192.78
2023-03-06T14:34:21.705Z,100185.59
2023-03-06T14:36:52.242Z,100192.00
2023-03-06T14:39:37.097Z,100195.53
2023-03-06T14:42:20.681Z,100190.31
2023-03-06T14:44:49.971Z,100184.28
2023-03-06T14:47:30.221Z,100194.44
2023-03-06T14:50:25.664Z,100187.44
2023-03-06T14:52:57.904Z,100194.72
2023-03-06T14:55:28.112Z,100185.41
2023-03-06T14:58:08.260Z,100184.78
2023-03-06T15:00:42.150Z,100189.13
2023-03-06T15:03:17.677Z,100181.59
2023-03-06T15:05:45.961Z,100183.22
2023-03-06T15:08:20.199Z,100176.44
2023-03-06T15:11:03.017Z,100175.97
2023-03-06T15:13:32.145Z,100172.38
2023-03-06T15:16:23.843Z,100172.47
2023-03-06T15:19:02.372Z,100169.56
2023-03-06T15:21:38.926Z,100162.66
2023-03-06T15:24:33.531Z,100163.53
2023-03-06T15:27:04.577Z,100163.59
2023-03-06T15:29:32.082Z,100168.06
2023-03-06T15:32:35.988Z,100171.19
2023-03-06T15:35:28.229Z,100162.91
2023-03-06T15:37:58.254Z,100165.78
2023-03-06T15:40:30.749Z,100165.53
2023-03-06T15:42:59.134Z,100160.69
2023-03-06T15:45:29.439Z,100160.75
2023-03-06T15:47:56.378Z,100158.31
2023-03-06T15:50:25.861Z,100164.25
2023-03-06T15:52:52.619Z,100158.84
2023-03-06T15:55:25.726Z,100153.09
2023-03-06T15:58:02.932Z,100150.59
2023-03-06T16:00:34.430Z,100143.47
2023-03-06T16:03:05.259Z,100152.13
2023-03-06T16:05:32.517Z,100142.56
2023-03-06T16:07:59.289Z,100141.63
2023-03-06T16:10:29.337Z,100127.31
2023-03-06T16:13:15.696Z,100120.56
2023-03-06T16:15:50.783Z,100121.53
2023-03-06T16:18:18.311Z,100122.66
2023-03-06T16:20:45.259Z,100124.19
2023-03-06T16:23:12.412Z,100124.34
2023-03-06T16:25:43.016Z,100121.81
2023-03-06T16:28:14.311Z,100125.84
2023-03-06T16:30:43.568Z,100123.47
2023-03-06T16:33:14.264Z,100130.31
2023-03-06T16:35:44.265Z,100121.09
2023-03-06T16:38:21.175Z,100123.03
2023-03-06T16:40:48.819Z,100112.56
2023-03-06T16:43:16.522Z,100118.63
2023-03-06T16:45:43.680Z,100121.25
2023-03-06T16:48:15.857Z,100114.34
2023-03-06T16:50:43.094Z,100111.78
2023-03-06T16:53:09.885Z,100110.28
2023-03-06T16:55:36.862Z,100111.06
2023-03-06T16:58:04.485Z,100105.38
2023-03-06T17:00:34.462Z,100101.13
2023-03-06T17:03:04.044Z,100101.19
2023-03-06T17:05:36.088Z,100104.56
2023-03-06T17:08:03.904Z,100102.88
2023-03-06T17:10:31.130Z,100102.19
2023-03-06T17:12:57.865Z,100105.50
2023-03-06T17:15:24.696Z,100090.97
2023-03-06T17:17:53.160Z,100093.59
2023-03-06T17:20:20.316Z,100087.50
2023-03-06T17:22:47.063Z,100084.03
2023-03-06T17:25:13.932Z,100083.22
2023-03-06T17:27:41.104Z,100085.88
2023-03-06T17:30:08.551Z,100084.09
2023-03-06T17:32:35.517Z,100088.28
2023-03-06T17:35:02.244Z,100085.63
2023-03-06T17:37:29.027Z,100085.63
2023-03-06T17:39:55.790Z,100092.63
2023-03-06T17:42:22.582Z,100086.69
2023-03-06T17:44:49.470Z,100086.72
2023-03-06T17:47:16.319Z,100086.69
2023-03-06T17:49:43.204Z,100077.22
2023-03-06T17:52:10.850Z,100089.09
2023-03-06T17:54:37.596Z,100082.44
2023-03-06T17:57:05.729Z,100086.63
2023-03-06T17:59:36.342Z,100078.94
2023-03-06T18:02:03.368Z,100084.09
2023-03-06T18:04:30.323Z,100077.28
2023-03-06T18:06:58.574Z,100074.75
2023-03-06T18:09:25.452Z,100074.66
2023-03-06T18:11:52.354Z,100072.16
2023-03-06T18:14:19.326Z,100072.13
2023-03-06T18:16:46.395Z,100072.13
2023-03-06T18:19:13.288Z,100068.78
2023-03-06T18:21:40.173Z,100068.72
2023-03-06T18:24:07.646Z,100065.19
2023-03-06T18:26:34.443Z,100065.28
2023-03-06T18:29:04.433Z,100067.00
2023-03-06T18:31:38.333Z,100054.25
2023-03-06T18:34:12.366Z,100049.94
2023-03-06T18:36:40.954Z,100057.59
2023-03-06T18:39:10.312Z,100054.16
2023-03-06T18:41:37.735Z,100045.69
2023-03-06T18:44:05.846Z,100048.22
2023-03-06T18:46:36.498Z,100039.66
2023-03-06T18:49:04.069Z,100040.47
2023-03-06T18:51:31.663Z,100031.06
2023-03-06T18:54:04.045Z,100035.34
2023-03-06T18:56:31.152Z,100043.88
2023-03-06T18:59:05.083Z,100035.25
2023-03-06T19:01:32.869Z,100030.94
2023-03-06T19:04:02.192Z,100026.59
2023-03-06T19:06:29.967Z,100019.84
2023-03-06T19:09:01.669Z,100017.28
2023-03-06T19:11:29.330Z,100020.66
2023-03-06T19:13:56.176Z,100016.34
2023-03-06T19:16:26.762Z,100018.00
2023-03-06T19:18:57.287Z,100003.56
2023-03-06T19:21:27.175Z,100005.28
2023-03-06T19:23:54.619Z,100006.97
2023-03-06T19:26:22.076Z,99998.44
2023-03-06T19:28:49.515Z,100003.53
2023-03-06T19:31:25.120Z,100008.66
2023-03-06T19:33:53.881Z,99997.56
2023-03-06T19:36:26.558Z,100000.03
2023-03-06T19:38:58.434Z,100001.88
2023-03-06T19:41:26.538Z,100002.50
2023-03-06T19:43:58.289Z,99995.75
2023-03-06T19:46:26.534Z,99994.13
2023-03-06T19:48:59.318Z,99992.38
2023-03-06T19:51:27.313Z,99989.88
2023-03-06T19:53:55.637Z,99983.84
2023-03-06T19:56:30.137Z,99975.19
2023-03-06T19:58:57.369Z,99976.06
2023-03-06T20:01:26.856Z,99972.78
2023-03-06T20:03:59.081Z,99970.97
2023-03-06T20:06:30.265Z,99972.72
2023-03-06T20:08:57.205Z,99960.56
2023-03-06T20:11:27.166Z,99947.75
2023-03-06T20:13:54.198Z,99948.59
2023-03-06T20:16:21.010Z,99946.03
2023-03-06T20:18:47.960Z,99951.22
2023-03-06T20:21:15.589Z,99933.25
2023-03-06T20:23:43.258Z,99938.41
2023-03-06T20:26:13.130Z,99931.72
2023-03-06T20:28:41.702Z,99935.09
2023-03-06T20:31:20.443Z,99925.78
2023-03-06T20:33:50.406Z,99928.31
2023-03-06T20:36:25.017Z,99920.50
2023-03-06T20:38:51.956Z,99921.31
2023-03-06T20:41:26.495Z,99924.81
2023-03-06T20:43:54.042Z,99912.00
2023-03-06T20:46:22.802Z,99912.97
2023-03-06T20:48:52.267Z,99913.00
2023-03-06T20:51:27.927Z,99897.56
2023-03-06T20:53:55.784Z,99899.22
2023-03-06T20:56:29.341Z,99902.59
2023-03-06T20:58:58.316Z,99895.75
2023-03-06T21:01:34.636Z,99892.44
2023-03-06T21:04:04.497Z,99892.38
2023-03-06T21:06:32.225Z,99890.53
2023-03-06T21:09:01.191Z,99887.19
2023-03-06T21:11:28.397Z,99884.75
2023-03-06T21:13:56.153Z,99890.03
2023-03-06T21:16:26.375Z,99891.81
2023-03-06T21:18:58.227Z,99876.56
2023-03-06T21:21:31.039Z,99878.47
2023-03-06T21:23:58.162Z,99875.97
2023-03-06T21:26:29.072Z,99872.94
2023-03-06T21:28:59.411Z,99867.16
2023-03-06T21:31:30.182Z,99866.53
2023-03-06T21:33:58.936Z,99864.84
2023-03-06T21:36:27.029Z,99857.25
2023-03-06T21:38:54.640Z,99859.94
2023-03-06T21:41:27.962Z,99848.00
2023-03-06T21:44:00.710Z,99852.31
2023-03-06T21:46:28.117Z,99846.44
2023-03-06T21:48:55.792Z,99847.19
2023-03-06T21:51:24.104Z,99845.69
2023-03-06T21:53:52.782Z,99839.81
2023-03-06T21:56:22.668Z,99831.91
2023-03-06T21:58:49.407Z,99836.25
2023-03-06T22:01:26.100Z,99832.72
2023-03-06T22:03:54.043Z,99828.47
2023-03-06T22:06:25.364Z,99819.94
2023-03-06T22:08:52.281Z,99817.25
2023-03-06T22:11:22.093Z,99813.81
2023-03-06T22:13:49.559Z,99817.81
2023-03-06T22:16:17.426Z,99798.09
2023-03-06T22:18:49.947Z,99794.63
2023-03-06T22:21:19.896Z,99790.28
2023-03-06T22:23:57.512Z,99783.44
2023-03-06T22:26:28.648Z,99787.63
2023-03-06T22:28:55.721Z,99779.84
2023-03-06T22:31:25.906Z,99773.94
2023-03-06T22:33:54.786Z,99771.97
2023-03-06T22:36:23.360Z,99765.13
2023-03-06T22:38:56.125Z,99762.66
2023-03-06T22:41:23.346Z,99766.84
2023-03-06T22:43:50.071Z,99759.16
2023-03-06T22:46:17.978Z,99762.66
2023-03-06T22:48:45.243Z,99756.72
2023-03-06T22:51:15.780Z,99748.34
2023-03-06T22:53:43.592Z,99744.84
2023-03-06T22:56:13.326Z,99734.72
2023-03-06T22:58:41.020Z,99734.78
2023-03-06T23:01:11.992Z,99733.03
2023-03-06T23:03:42.648Z,99732.22
2023-03-06T23:06:14.414Z,99731.44
2023-03-06T23:08:42.404Z,99730.66
2023-03-06T23:11:13.234Z,99726.41
2023-03-06T23:13:59.171Z,99719.59
2023-03-06T23:16:44.684Z,99721.34
2023-03-06T23:19:30.783Z,99721.28
2023-03-06T23:22:15.933Z,99718.94
2023-03-06T23:25:01.170Z,99718.06
2023-03-06T23:27:29.399Z,99715.59
2023-03-06T23:29:58.813Z,99708.78
2023-03-06T23:32:25.617Z,99716.47
2023-03-06T23:34:52.517Z,99716.41
2023-03-06T23:37:19.301Z,99704.47
2023-03-06T23:39:46.941Z,99709.59
2023-03-06T23:42:13.730Z,99702.88
2023-03-06T23:44:40.621Z,99708.91
2023-03-06T23:47:07.449Z,99705.41
2023-03-06T23:49:34.541Z,99702.75
2023-03-06T23:52:01.666Z,99700.06
2023-03-06T23:54:28.534Z,99698.47
2023-03-06T23:56:55.380Z,99702.69
2023-03-06T23:59:22.158Z,99696.69
